sensor_id;sensor_type;location;lat;lon;timestamp;P1;durP1;ratioP1;P2;durP2;ratioP2
27728;SDS011;15126;42.186;24.340;2023-04-29T00:01:30;11.47;;;10.47;;
27728;SDS011;15126;42.186;24.340;2023-04-29T00:03:57;14.93;;;12.00;;
27728;SDS011;15126;42.186;24.340;2023-04-29T00:06:24;10.53;;;9.57;;
27728;SDS011;15126;42.186;24.340;2023-04-29T00:08:50;11.07;;;10.07;;
27728;SDS011;15126;42.186;24.340;2023-04-29T00:11:17;11.50;;;10.37;;
27728;SDS011;15126;42.186;24.340;2023-04-29T00:13:44;11.90;;;10.70;;
27728;SDS011;15126;42.186;24.340;2023-04-29T00:16:12;14.27;;;11.20;;
27728;SDS011;15126;42.186;24.340;2023-04-29T00:18:39;14.37;;;11.03;;
27728;SDS011;15126;42.186;24.340;2023-04-29T00:21:06;10.87;;;9.80;;
27728;SDS011;15126;42.186;24.340;2023-04-29T00:23:33;12.13;;;10.67;;
27728;SDS011;15126;42.186;24.340;2023-04-29T00:26:00;13.37;;;11.97;;
27728;SDS011;15126;42.186;24.340;2023-04-29T00:28:27;12.43;;;11.13;;
27728;SDS011;15126;42.186;24.340;2023-04-29T00:30:54;12.63;;;10.53;;
27728;SDS011;15126;42.186;24.340;2023-04-29T00:33:22;11.23;;;10.07;;
27728;SDS011;15126;42.186;24.340;2023-04-29T00:35:49;14.70;;;13.03;;
27728;SDS011;15126;42.186;24.340;2023-04-29T00:38:16;15.17;;;11.50;;
27728;SDS011;15126;42.186;24.340;2023-04-29T00:40:43;12.97;;;11.73;;
27728;SDS011;15126;42.186;24.340;2023-04-29T00:43:10;14.97;;;10.30;;
27728;SDS011;15126;42.186;24.340;2023-04-29T00:45:37;17.87;;;10.77;;
27728;SDS011;15126;42.186;24.340;2023-04-29T00:48:05;12.30;;;11.07;;
27728;SDS011;15126;42.186;24.340;2023-04-29T00:50:33;11.23;;;10.13;;
27728;SDS011;15126;42.186;24.340;2023-04-29T00:53:01;12.30;;;11.00;;
27728;SDS011;15126;42.186;24.340;2023-04-29T00:55:28;12.47;;;11.27;;
27728;SDS011;15126;42.186;24.340;2023-04-29T00:57:55;16.00;;;11.40;;
27728;SDS011;15126;42.186;24.340;2023-04-29T01:00:22;14.50;;;11.70;;
27728;SDS011;15126;42.186;24.340;2023-04-29T01:02:51;13.33;;;11.87;;
27728;SDS011;15126;42.186;24.340;2023-04-29T01:05:18;15.97;;;11.50;;
27728;SDS011;15126;42.186;24.340;2023-04-29T01:07:47;18.57;;;11.37;;
27728;SDS011;15126;42.186;24.340;2023-04-29T01:10:25;12.50;;;11.20;;
27728;SDS011;15126;42.186;24.340;2023-04-29T01:12:56;11.63;;;10.43;;
27728;SDS011;15126;42.186;24.340;2023-04-29T01:15:33;14.27;;;10.70;;
27728;SDS011;15126;42.186;24.340;2023-04-29T01:18:10;12.57;;;11.43;;
27728;SDS011;15126;42.186;24.340;2023-04-29T01:20:39;13.03;;;11.70;;
27728;SDS011;15126;42.186;24.340;2023-04-29T01:23:10;12.53;;;10.77;;
27728;SDS011;15126;42.186;24.340;2023-04-29T01:25:38;12.37;;;11.13;;
27728;SDS011;15126;42.186;24.340;2023-04-29T01:28:08;11.93;;;10.77;;
27728;SDS011;15126;42.186;24.340;2023-04-29T01:30:48;11.10;;;10.10;;
27728;SDS011;15126;42.186;24.340;2023-04-29T01:33:22;10.70;;;9.60;;
27728;SDS011;15126;42.186;24.340;2023-04-29T01:36:02;11.60;;;10.13;;
27728;SDS011;15126;42.186;24.340;2023-04-29T01:38:41;13.30;;;11.30;;
27728;SDS011;15126;42.186;24.340;2023-04-29T01:41:22;12.47;;;11.07;;
27728;SDS011;15126;42.186;24.340;2023-04-29T01:43:56;17.90;;;16.10;;
27728;SDS011;15126;42.186;24.340;2023-04-29T01:46:26;21.07;;;18.97;;
27728;SDS011;15126;42.186;24.340;2023-04-29T01:48:54;21.67;;;19.37;;
27728;SDS011;15126;42.186;24.340;2023-04-29T01:51:21;21.87;;;19.57;;
27728;SDS011;15126;42.186;24.340;2023-04-29T01:53:47;17.97;;;16.17;;
27728;SDS011;15126;42.186;24.340;2023-04-29T01:56:14;18.73;;;16.80;;
27728;SDS011;15126;42.186;24.340;2023-04-29T01:58:43;19.03;;;17.20;;
27728;SDS011;15126;42.186;24.340;2023-04-29T02:01:09;24.80;;;22.20;;
27728;SDS011;15126;42.186;24.340;2023-04-29T02:03:36;24.57;;;22.10;;
27728;SDS011;15126;42.186;24.340;2023-04-29T02:06:03;25.10;;;22.70;;
27728;SDS011;15126;42.186;24.340;2023-04-29T02:08:31;21.17;;;19.13;;
27728;SDS011;15126;42.186;24.340;2023-04-29T02:10:58;20.87;;;18.57;;
27728;SDS011;15126;42.186;24.340;2023-04-29T02:13:25;22.73;;;20.43;;
27728;SDS011;15126;42.186;24.340;2023-04-29T02:15:53;21.80;;;19.80;;
27728;SDS011;15126;42.186;24.340;2023-04-29T02:18:20;22.47;;;20.10;;
27728;SDS011;15126;42.186;24.340;2023-04-29T02:20:47;24.50;;;22.00;;
27728;SDS011;15126;42.186;24.340;2023-04-29T02:23:15;25.47;;;22.90;;
27728;SDS011;15126;42.186;24.340;2023-04-29T02:25:41;32.93;;;24.13;;
27728;SDS011;15126;42.186;24.340;2023-04-29T02:28:08;29.40;;;26.40;;
27728;SDS011;15126;42.186;24.340;2023-04-29T02:30:36;28.43;;;25.47;;
27728;SDS011;15126;42.186;24.340;2023-04-29T02:33:04;27.97;;;25.17;;
27728;SDS011;15126;42.186;24.340;2023-04-29T02:35:32;26.73;;;24.07;;
27728;SDS011;15126;42.186;24.340;2023-04-29T02:37:58;25.43;;;22.80;;
27728;SDS011;15126;42.186;24.340;2023-04-29T02:40:25;20.83;;;18.80;;
27728;SDS011;15126;42.186;24.340;2023-04-29T02:42:53;20.90;;;18.80;;
27728;SDS011;15126;42.186;24.340;2023-04-29T02:45:19;17.67;;;15.93;;
27728;SDS011;15126;42.186;24.340;2023-04-29T02:47:46;17.00;;;13.93;;
27728;SDS011;15126;42.186;24.340;2023-04-29T02:50:15;16.63;;;14.93;;
27728;SDS011;15126;42.186;24.340;2023-04-29T02:52:41;16.23;;;14.73;;
27728;SDS011;15126;42.186;24.340;2023-04-29T02:55:08;15.10;;;13.43;;
27728;SDS011;15126;42.186;24.340;2023-04-29T02:57:35;13.97;;;12.73;;
27728;SDS011;15126;42.186;24.340;2023-04-29T03:00:02;14.03;;;12.60;;
27728;SDS011;15126;42.186;24.340;2023-04-29T03:02:30;13.90;;;12.60;;
27728;SDS011;15126;42.186;24.340;2023-04-29T03:04:57;14.70;;;13.23;;
27728;SDS011;15126;42.186;24.340;2023-04-29T03:07:25;14.20;;;12.73;;
27728;SDS011;15126;42.186;24.340;2023-04-29T03:09:52;13.47;;;12.20;;
27728;SDS011;15126;42.186;24.340;2023-04-29T03:12:20;13.43;;;12.13;;
27728;SDS011;15126;42.186;24.340;2023-04-29T03:14:47;14.43;;;13.07;;
27728;SDS011;15126;42.186;24.340;2023-04-29T03:17:14;14.67;;;13.27;;
27728;SDS011;15126;42.186;24.340;2023-04-29T03:19:40;14.77;;;13.27;;
27728;SDS011;15126;42.186;24.340;2023-04-29T03:22:07;14.67;;;12.40;;
27728;SDS011;15126;42.186;24.340;2023-04-29T03:24:37;14.57;;;13.13;;
27728;SDS011;15126;42.186;24.340;2023-04-29T03:27:04;16.20;;;12.13;;
27728;SDS011;15126;42.186;24.340;2023-04-29T03:29:31;15.70;;;13.33;;
27728;SDS011;15126;42.186;24.340;2023-04-29T03:31:58;17.93;;;13.83;;
27728;SDS011;15126;42.186;24.340;2023-04-29T03:34:25;15.17;;;13.53;;
27728;SDS011;15126;42.186;24.340;2023-04-29T03:36:52;14.80;;;13.30;;
27728;SDS011;15126;42.186;24.340;2023-04-29T03:39:19;10.70;;;9.70;;
27728;SDS011;15126;42.186;24.340;2023-04-29T03:41:47;9.67;;;8.87;;
27728;SDS011;15126;42.186;24.340;2023-04-29T03:44:14;9.50;;;8.43;;
27728;SDS011;15126;42.186;24.340;2023-04-29T03:46:41;8.50;;;7.13;;
27728;SDS011;15126;42.186;24.340;2023-04-29T03:49:07;8.03;;;7.23;;
27728;SDS011;15126;42.186;24.340;2023-04-29T03:51:34;8.00;;;7.30;;
27728;SDS011;15126;42.186;24.340;2023-04-29T03:54:01;11.20;;;7.23;;
27728;SDS011;15126;42.186;24.340;2023-04-29T03:56:28;7.57;;;6.87;;
27728;SDS011;15126;42.186;24.340;2023-04-29T03:58:56;9.13;;;8.10;;
27728;SDS011;15126;42.186;24.340;2023-04-29T04:01:23;12.20;;;10.17;;
27728;SDS011;15126;42.186;24.340;2023-04-29T04:03:50;9.70;;;8.53;;
27728;SDS011;15126;42.186;24.340;2023-04-29T04:06:17;9.23;;;8.33;;
27728;SDS011;15126;42.186;24.340;2023-04-29T04:08:44;9.03;;;8.10;;
27728;SDS011;15126;42.186;24.340;2023-04-29T04:11:11;11.20;;;7.17;;
27728;SDS011;15126;42.186;24.340;2023-04-29T04:13:39;10.37;;;7.37;;
27728;SDS011;15126;42.186;24.340;2023-04-29T04:16:07;14.40;;;9.37;;
27728;SDS011;15126;42.186;24.340;2023-04-29T04:18:35;15.77;;;14.07;;
27728;SDS011;15126;42.186;24.340;2023-04-29T04:21:05;10.17;;;7.70;;
27728;SDS011;15126;42.186;24.340;2023-04-29T04:23:32;8.73;;;7.83;;
27728;SDS011;15126;42.186;24.340;2023-04-29T04:25:59;10.83;;;8.50;;
27728;SDS011;15126;42.186;24.340;2023-04-29T04:28:26;9.83;;;8.80;;
27728;SDS011;15126;42.186;24.340;2023-04-29T04:30:53;10.10;;;8.43;;
27728;SDS011;15126;42.186;24.340;2023-04-29T04:33:21;8.13;;;7.53;;
27728;SDS011;15126;42.186;24.340;2023-04-29T04:35:48;11.10;;;9.30;;
27728;SDS011;15126;42.186;24.340;2023-04-29T04:38:15;14.57;;;9.80;;
27728;SDS011;15126;42.186;24.340;2023-04-29T04:40:42;17.03;;;9.20;;
27728;SDS011;15126;42.186;24.340;2023-04-29T04:43:09;13.33;;;9.67;;
27728;SDS011;15126;42.186;24.340;2023-04-29T04:45:36;11.53;;;10.37;;
27728;SDS011;15126;42.186;24.340;2023-04-29T04:48:03;10.77;;;9.67;;
27728;SDS011;15126;42.186;24.340;2023-04-29T04:50:31;13.47;;;9.90;;
27728;SDS011;15126;42.186;24.340;2023-04-29T04:52:58;12.80;;;9.20;;
27728;SDS011;15126;42.186;24.340;2023-04-29T04:55:25;9.40;;;8.50;;
27728;SDS011;15126;42.186;24.340;2023-04-29T04:57:51;11.43;;;9.17;;
27728;SDS011;15126;42.186;24.340;2023-04-29T05:00:19;13.67;;;10.00;;
27728;SDS011;15126;42.186;24.340;2023-04-29T05:02:45;13.07;;;10.17;;
27728;SDS011;15126;42.186;24.340;2023-04-29T05:05:12;10.03;;;9.10;;
27728;SDS011;15126;42.186;24.340;2023-04-29T05:07:41;16.37;;;9.03;;
27728;SDS011;15126;42.186;24.340;2023-04-29T05:10:08;9.90;;;7.50;;
27728;SDS011;15126;42.186;24.340;2023-04-29T05:12:35;8.60;;;7.80;;
27728;SDS011;15126;42.186;24.340;2023-04-29T05:15:04;10.80;;;8.37;;
27728;SDS011;15126;42.186;24.340;2023-04-29T05:17:32;11.00;;;8.93;;
27728;SDS011;15126;42.186;24.340;2023-04-29T05:20:00;10.50;;;7.97;;
27728;SDS011;15126;42.186;24.340;2023-04-29T05:22:29;9.13;;;8.20;;
27728;SDS011;15126;42.186;24.340;2023-04-29T05:24:57;9.17;;;8.13;;
27728;SDS011;15126;42.186;24.340;2023-04-29T05:27:27;9.37;;;8.40;;
27728;SDS011;15126;42.186;24.340;2023-04-29T05:29:54;10.23;;;9.23;;
27728;SDS011;15126;42.186;24.340;2023-04-29T05:32:21;10.50;;;8.60;;
27728;SDS011;15126;42.186;24.340;2023-04-29T05:34:48;10.80;;;8.80;;
27728;SDS011;15126;42.186;24.340;2023-04-29T05:37:15;8.73;;;7.83;;
27728;SDS011;15126;42.186;24.340;2023-04-29T05:39:42;12.13;;;8.27;;
27728;SDS011;15126;42.186;24.340;2023-04-29T05:42:10;9.47;;;8.53;;
27728;SDS011;15126;42.186;24.340;2023-04-29T05:44:37;11.00;;;8.50;;
27728;SDS011;15126;42.186;24.340;2023-04-29T05:47:05;12.33;;;8.10;;
27728;SDS011;15126;42.186;24.340;2023-04-29T05:49:31;11.00;;;8.03;;
27728;SDS011;15126;42.186;24.340;2023-04-29T05:51:58;10.70;;;8.43;;
27728;SDS011;15126;42.186;24.340;2023-04-29T05:54:28;8.60;;;7.50;;
27728;SDS011;15126;42.186;24.340;2023-04-29T05:56:55;11.27;;;8.20;;
27728;SDS011;15126;42.186;24.340;2023-04-29T05:59:23;8.73;;;7.87;;
27728;SDS011;15126;42.186;24.340;2023-04-29T06:01:50;8.87;;;7.97;;
27728;SDS011;15126;42.186;24.340;2023-04-29T06:04:16;8.63;;;7.77;;
27728;SDS011;15126;42.186;24.340;2023-04-29T06:06:43;9.20;;;7.47;;
27728;SDS011;15126;42.186;24.340;2023-04-29T06:09:10;9.20;;;7.77;;
27728;SDS011;15126;42.186;24.340;2023-04-29T06:11:39;8.33;;;7.30;;
27728;SDS011;15126;42.186;24.340;2023-04-29T06:14:06;8.00;;;7.13;;
27728;SDS011;15126;42.186;24.340;2023-04-29T06:16:34;9.23;;;7.73;;
27728;SDS011;15126;42.186;24.340;2023-04-29T06:19:01;11.03;;;7.30;;
27728;SDS011;15126;42.186;24.340;2023-04-29T06:21:28;8.87;;;6.80;;
27728;SDS011;15126;42.186;24.340;2023-04-29T06:23:55;11.33;;;7.17;;
27728;SDS011;15126;42.186;24.340;2023-04-29T06:26:22;12.60;;;7.13;;
27728;SDS011;15126;42.186;24.340;2023-04-29T06:28:49;11.50;;;6.93;;
27728;SDS011;15126;42.186;24.340;2023-04-29T06:31:16;9.57;;;7.50;;
27728;SDS011;15126;42.186;24.340;2023-04-29T06:33:44;7.73;;;7.03;;
27728;SDS011;15126;42.186;24.340;2023-04-29T06:36:11;7.73;;;6.83;;
27728;SDS011;15126;42.186;24.340;2023-04-29T06:38:38;8.23;;;7.10;;
27728;SDS011;15126;42.186;24.340;2023-04-29T06:41:05;14.77;;;7.43;;
27728;SDS011;15126;42.186;24.340;2023-04-29T06:43:32;11.77;;;6.50;;
27728;SDS011;15126;42.186;24.340;2023-04-29T06:45:58;10.30;;;6.57;;
27728;SDS011;15126;42.186;24.340;2023-04-29T06:48:25;11.67;;;7.70;;
27728;SDS011;15126;42.186;24.340;2023-04-29T06:50:54;14.43;;;7.30;;
27728;SDS011;15126;42.186;24.340;2023-04-29T06:53:24;8.43;;;7.17;;
27728;SDS011;15126;42.186;24.340;2023-04-29T06:55:51;9.97;;;7.57;;
27728;SDS011;15126;42.186;24.340;2023-04-29T06:58:18;6.97;;;5.63;;
27728;SDS011;15126;42.186;24.340;2023-04-29T07:00:45;6.97;;;6.27;;
27728;SDS011;15126;42.186;24.340;2023-04-29T07:03:13;7.73;;;5.40;;
27728;SDS011;15126;42.186;24.340;2023-04-29T07:05:41;6.13;;;5.53;;
27728;SDS011;15126;42.186;24.340;2023-04-29T07:08:11;8.37;;;5.00;;
27728;SDS011;15126;42.186;24.340;2023-04-29T07:10:38;7.93;;;5.13;;
27728;SDS011;15126;42.186;24.340;2023-04-29T07:13:05;7.70;;;6.93;;
27728;SDS011;15126;42.186;24.340;2023-04-29T07:15:32;8.97;;;8.07;;
27728;SDS011;15126;42.186;24.340;2023-04-29T07:18:00;10.00;;;8.17;;
27728;SDS011;15126;42.186;24.340;2023-04-29T07:20:28;11.27;;;8.63;;
27728;SDS011;15126;42.186;24.340;2023-04-29T07:22:55;7.90;;;7.10;;
27728;SDS011;15126;42.186;24.340;2023-04-29T07:25:23;6.13;;;5.10;;
27728;SDS011;15126;42.186;24.340;2023-04-29T07:27:51;5.23;;;4.80;;
27728;SDS011;15126;42.186;24.340;2023-04-29T07:30:18;7.07;;;5.53;;
27728;SDS011;15126;42.186;24.340;2023-04-29T07:32:44;7.63;;;5.33;;
27728;SDS011;15126;42.186;24.340;2023-04-29T07:35:11;6.00;;;4.77;;
27728;SDS011;15126;42.186;24.340;2023-04-29T07:37:38;7.37;;;4.83;;
27728;SDS011;15126;42.186;24.340;2023-04-29T07:40:06;7.93;;;5.00;;
27728;SDS011;15126;42.186;24.340;2023-04-29T07:42:35;7.27;;;5.20;;
27728;SDS011;15126;42.186;24.340;2023-04-29T07:45:03;8.37;;;5.90;;
27728;SDS011;15126;42.186;24.340;2023-04-29T07:47:31;6.30;;;5.30;;
27728;SDS011;15126;42.186;24.340;2023-04-29T07:49:57;8.37;;;6.13;;
27728;SDS011;15126;42.186;24.340;2023-04-29T07:52:24;8.27;;;5.03;;
27728;SDS011;15126;42.186;24.340;2023-04-29T07:54:51;6.17;;;5.63;;
27728;SDS011;15126;42.186;24.340;2023-04-29T07:57:20;6.53;;;4.47;;
27728;SDS011;15126;42.186;24.340;2023-04-29T07:59:51;11.70;;;5.33;;
27728;SDS011;15126;42.186;24.340;2023-04-29T08:02:19;5.83;;;4.73;;
27728;SDS011;15126;42.186;24.340;2023-04-29T08:04:46;8.10;;;4.73;;
27728;SDS011;15126;42.186;24.340;2023-04-29T08:07:12;10.63;;;5.13;;
27728;SDS011;15126;42.186;24.340;2023-04-29T08:09:39;5.70;;;4.43;;
27728;SDS011;15126;42.186;24.340;2023-04-29T08:12:07;5.67;;;4.80;;
27728;SDS011;15126;42.186;24.340;2023-04-29T08:14:33;5.43;;;4.87;;
27728;SDS011;15126;42.186;24.340;2023-04-29T08:17:01;5.20;;;4.70;;
27728;SDS011;15126;42.186;24.340;2023-04-29T08:19:28;6.20;;;4.67;;
27728;SDS011;15126;42.186;24.340;2023-04-29T08:21:55;5.63;;;5.07;;
27728;SDS011;15126;42.186;24.340;2023-04-29T08:24:22;6.50;;;5.30;;
27728;SDS011;15126;42.186;24.340;2023-04-29T08:26:49;9.07;;;5.23;;
27728;SDS011;15126;42.186;24.340;2023-04-29T08:29:16;5.17;;;4.77;;
27728;SDS011;15126;42.186;24.340;2023-04-29T08:31:43;6.83;;;5.83;;
27728;SDS011;15126;42.186;24.340;2023-04-29T08:34:12;8.20;;;5.30;;
27728;SDS011;15126;42.186;24.340;2023-04-29T08:36:39;5.37;;;4.87;;
27728;SDS011;15126;42.186;24.340;2023-04-29T08:39:05;7.80;;;4.87;;
27728;SDS011;15126;42.186;24.340;2023-04-29T08:41:32;7.40;;;5.83;;
27728;SDS011;15126;42.186;24.340;2023-04-29T08:43:59;6.73;;;5.20;;
27728;SDS011;15126;42.186;24.340;2023-04-29T08:46:26;13.17;;;5.53;;
27728;SDS011;15126;42.186;24.340;2023-04-29T08:48:53;7.43;;;5.43;;
27728;SDS011;15126;42.186;24.340;2023-04-29T08:51:23;5.43;;;4.33;;
27728;SDS011;15126;42.186;24.340;2023-04-29T08:53:50;7.27;;;5.57;;
27728;SDS011;15126;42.186;24.340;2023-04-29T08:56:17;6.07;;;5.43;;
27728;SDS011;15126;42.186;24.340;2023-04-29T08:58:46;10.53;;;5.27;;
27728;SDS011;15126;42.186;24.340;2023-04-29T09:01:18;5.87;;;4.90;;
27728;SDS011;15126;42.186;24.340;2023-04-29T09:03:48;7.73;;;5.07;;
27728;SDS011;15126;42.186;24.340;2023-04-29T09:06:21;5.90;;;5.30;;
27728;SDS011;15126;42.186;24.340;2023-04-29T09:08:49;8.67;;;5.13;;
27728;SDS011;15126;42.186;24.340;2023-04-29T09:11:16;9.57;;;5.33;;
27728;SDS011;15126;42.186;24.340;2023-04-29T09:13:43;4.40;;;3.93;;
27728;SDS011;15126;42.186;24.340;2023-04-29T09:16:10;6.43;;;4.97;;
27728;SDS011;15126;42.186;24.340;2023-04-29T09:18:44;5.33;;;4.83;;
27728;SDS011;15126;42.186;24.340;2023-04-29T09:21:15;12.73;;;5.27;;
27728;SDS011;15126;42.186;24.340;2023-04-29T09:23:43;8.27;;;4.77;;
27728;SDS011;15126;42.186;24.340;2023-04-29T09:26:12;5.50;;;4.83;;
27728;SDS011;15126;42.186;24.340;2023-04-29T09:28:39;10.23;;;6.50;;
27728;SDS011;15126;42.186;24.340;2023-04-29T09:31:09;8.53;;;5.07;;
27728;SDS011;15126;42.186;24.340;2023-04-29T09:33:49;7.13;;;5.10;;
27728;SDS011;15126;42.186;24.340;2023-04-29T09:36:39;5.30;;;4.80;;
27728;SDS011;15126;42.186;24.340;2023-04-29T09:39:09;8.00;;;4.43;;
27728;SDS011;15126;42.186;24.340;2023-04-29T09:41:39;7.37;;;6.13;;
27728;SDS011;15126;42.186;24.340;2023-04-29T09:44:24;7.37;;;5.40;;
27728;SDS011;15126;42.186;24.340;2023-04-29T09:46:55;7.50;;;6.03;;
27728;SDS011;15126;42.186;24.340;2023-04-29T09:49:24;16.53;;;12.83;;
27728;SDS011;15126;42.186;24.340;2023-04-29T09:51:53;7.83;;;5.53;;
27728;SDS011;15126;42.186;24.340;2023-04-29T09:54:21;8.43;;;5.80;;
27728;SDS011;15126;42.186;24.340;2023-04-29T09:56:50;6.97;;;4.50;;
27728;SDS011;15126;42.186;24.340;2023-04-29T09:59:18;4.73;;;4.33;;
27728;SDS011;15126;42.186;24.340;2023-04-29T10:01:46;7.77;;;4.37;;
27728;SDS011;15126;42.186;24.340;2023-04-29T10:04:14;6.17;;;4.67;;
27728;SDS011;15126;42.186;24.340;2023-04-29T10:06:42;7.80;;;5.50;;
27728;SDS011;15126;42.186;24.340;2023-04-29T10:09:12;8.33;;;6.00;;
27728;SDS011;15126;42.186;24.340;2023-04-29T10:11:40;7.67;;;4.63;;
27728;SDS011;15126;42.186;24.340;2023-04-29T10:14:11;7.97;;;4.40;;
27728;SDS011;15126;42.186;24.340;2023-04-29T10:16:40;17.80;;;7.50;;
27728;SDS011;15126;42.186;24.340;2023-04-29T10:19:13;8.23;;;4.87;;
27728;SDS011;15126;42.186;24.340;2023-04-29T10:21:44;9.73;;;4.43;;
27728;SDS011;15126;42.186;24.340;2023-04-29T10:24:14;4.17;;;3.87;;
27728;SDS011;15126;42.186;24.340;2023-04-29T10:26:43;12.13;;;8.07;;
27728;SDS011;15126;42.186;24.340;2023-04-29T10:29:11;5.07;;;2.90;;
27728;SDS011;15126;42.186;24.340;2023-04-29T10:31:39;7.40;;;4.63;;
27728;SDS011;15126;42.186;24.340;2023-04-29T10:34:08;5.40;;;3.97;;
27728;SDS011;15126;42.186;24.340;2023-04-29T10:36:37;3.33;;;3.03;;
27728;SDS011;15126;42.186;24.340;2023-04-29T10:39:04;6.27;;;3.90;;
27728;SDS011;15126;42.186;24.340;2023-04-29T10:41:42;4.93;;;4.17;;
27728;SDS011;15126;42.186;24.340;2023-04-29T10:44:12;13.43;;;6.77;;
27728;SDS011;15126;42.186;24.340;2023-04-29T10:46:39;55.87;;;36.13;;
27728;SDS011;15126;42.186;24.340;2023-04-29T10:49:06;9.30;;;6.17;;
27728;SDS011;15126;42.186;24.340;2023-04-29T10:51:38;6.73;;;4.43;;
27728;SDS011;15126;42.186;24.340;2023-04-29T10:54:06;5.30;;;4.20;;
27728;SDS011;15126;42.186;24.340;2023-04-29T10:56:41;9.43;;;4.00;;
27728;SDS011;15126;42.186;24.340;2023-04-29T10:59:12;4.53;;;3.67;;
27728;SDS011;15126;42.186;24.340;2023-04-29T11:01:42;4.90;;;3.50;;
27728;SDS011;15126;42.186;24.340;2023-04-29T11:04:14;6.67;;;3.67;;
27728;SDS011;15126;42.186;24.340;2023-04-29T11:06:46;6.73;;;4.00;;
27728;SDS011;15126;42.186;24.340;2023-04-29T11:09:19;5.27;;;3.43;;
27728;SDS011;15126;42.186;24.340;2023-04-29T11:11:56;6.53;;;3.60;;
27728;SDS011;15126;42.186;24.340;2023-04-29T11:14:27;3.97;;;3.03;;
27728;SDS011;15126;42.186;24.340;2023-04-29T11:16:56;3.20;;;2.90;;
27728;SDS011;15126;42.186;24.340;2023-04-29T11:19:24;4.03;;;3.43;;
27728;SDS011;15126;42.186;24.340;2023-04-29T11:24:50;4.90;;;2.90;;
27728;SDS011;15126;42.186;24.340;2023-04-29T11:27:19;4.00;;;2.33;;
27728;SDS011;15126;42.186;24.340;2023-04-29T11:29:51;4.47;;;2.93;;
27728;SDS011;15126;42.186;24.340;2023-04-29T11:32:22;3.60;;;3.30;;
27728;SDS011;15126;42.186;24.340;2023-04-29T11:34:50;4.40;;;2.53;;
27728;SDS011;15126;42.186;24.340;2023-04-29T11:37:20;3.00;;;2.73;;
27728;SDS011;15126;42.186;24.340;2023-04-29T11:39:48;4.83;;;2.53;;
27728;SDS011;15126;42.186;24.340;2023-04-29T11:42:18;10.37;;;7.17;;
27728;SDS011;15126;42.186;24.340;2023-04-29T11:44:46;3.33;;;3.03;;
27728;SDS011;15126;42.186;24.340;2023-04-29T11:47:14;9.07;;;3.30;;
27728;SDS011;15126;42.186;24.340;2023-04-29T11:49:41;13.30;;;8.33;;
27728;SDS011;15126;42.186;24.340;2023-04-29T11:52:08;33.47;;;24.03;;
27728;SDS011;15126;42.186;24.340;2023-04-29T11:54:35;8.00;;;4.33;;
27728;SDS011;15126;42.186;24.340;2023-04-29T11:57:02;6.10;;;3.70;;
27728;SDS011;15126;42.186;24.340;2023-04-29T11:59:30;3.63;;;3.10;;
27728;SDS011;15126;42.186;24.340;2023-04-29T12:01:57;4.57;;;3.07;;
27728;SDS011;15126;42.186;24.340;2023-04-29T12:04:26;5.73;;;3.63;;
27728;SDS011;15126;42.186;24.340;2023-04-29T12:06:52;4.70;;;2.87;;
27728;SDS011;15126;42.186;24.340;2023-04-29T12:09:22;4.93;;;3.03;;
27728;SDS011;15126;42.186;24.340;2023-04-29T12:11:48;2.70;;;2.50;;
27728;SDS011;15126;42.186;24.340;2023-04-29T12:14:15;4.47;;;3.50;;
27728;SDS011;15126;42.186;24.340;2023-04-29T12:16:43;4.07;;;3.43;;
27728;SDS011;15126;42.186;24.340;2023-04-29T12:19:10;3.27;;;2.93;;
27728;SDS011;15126;42.186;24.340;2023-04-29T12:21:47;7.73;;;3.47;;
27728;SDS011;15126;42.186;24.340;2023-04-29T12:24:14;5.03;;;3.63;;
27728;SDS011;15126;42.186;24.340;2023-04-29T12:26:41;6.50;;;4.03;;
27728;SDS011;15126;42.186;24.340;2023-04-29T12:29:10;4.23;;;2.90;;
27728;SDS011;15126;42.186;24.340;2023-04-29T12:31:38;3.93;;;3.17;;
27728;SDS011;15126;42.186;24.340;2023-04-29T12:34:06;6.17;;;3.47;;
27728;SDS011;15126;42.186;24.340;2023-04-29T12:36:33;3.50;;;3.17;;
27728;SDS011;15126;42.186;24.340;2023-04-29T12:39:04;3.83;;;3.23;;
27728;SDS011;15126;42.186;24.340;2023-04-29T12:41:35;5.50;;;2.70;;
27728;SDS011;15126;42.186;24.340;2023-04-29T12:44:03;6.47;;;3.27;;
27728;SDS011;15126;42.186;24.340;2023-04-29T12:46:33;6.23;;;3.30;;
27728;SDS011;15126;42.186;24.340;2023-04-29T12:49:00;2.60;;;2.33;;
27728;SDS011;15126;42.186;24.340;2023-04-29T12:51:28;4.83;;;2.93;;
27728;SDS011;15126;42.186;24.340;2023-04-29T12:53:56;4.03;;;2.80;;
27728;SDS011;15126;42.186;24.340;2023-04-29T12:56:24;5.30;;;2.60;;
27728;SDS011;15126;42.186;24.340;2023-04-29T12:58:51;7.03;;;2.87;;
27728;SDS011;15126;42.186;24.340;2023-04-29T13:01:18;5.60;;;2.60;;
27728;SDS011;15126;42.186;24.340;2023-04-29T13:03:45;3.80;;;3.13;;
27728;SDS011;15126;42.186;24.340;2023-04-29T13:06:13;5.93;;;2.73;;
27728;SDS011;15126;42.186;24.340;2023-04-29T13:08:40;12.57;;;2.97;;
27728;SDS011;15126;42.186;24.340;2023-04-29T13:11:07;6.37;;;3.30;;
27728;SDS011;15126;42.186;24.340;2023-04-29T13:13:35;7.70;;;2.87;;
27728;SDS011;15126;42.186;24.340;2023-04-29T13:16:02;7.83;;;3.13;;
27728;SDS011;15126;42.186;24.340;2023-04-29T13:18:29;7.97;;;3.30;;
27728;SDS011;15126;42.186;24.340;2023-04-29T13:20:56;11.27;;;4.20;;
27728;SDS011;15126;42.186;24.340;2023-04-29T13:23:23;7.43;;;3.80;;
27728;SDS011;15126;42.186;24.340;2023-04-29T13:25:50;7.60;;;2.97;;
27728;SDS011;15126;42.186;24.340;2023-04-29T13:28:16;7.23;;;2.63;;
27728;SDS011;15126;42.186;24.340;2023-04-29T13:30:44;7.97;;;3.20;;
27728;SDS011;15126;42.186;24.340;2023-04-29T13:33:12;26.60;;;17.43;;
27728;SDS011;15126;42.186;24.340;2023-04-29T13:35:39;6.20;;;3.30;;
27728;SDS011;15126;42.186;24.340;2023-04-29T13:38:06;4.60;;;3.00;;
27728;SDS011;15126;42.186;24.340;2023-04-29T13:40:33;8.70;;;6.27;;
27728;SDS011;15126;42.186;24.340;2023-04-29T13:42:59;7.57;;;3.37;;
27728;SDS011;15126;42.186;24.340;2023-04-29T13:45:26;7.23;;;3.83;;
27728;SDS011;15126;42.186;24.340;2023-04-29T13:47:54;8.43;;;3.40;;
27728;SDS011;15126;42.186;24.340;2023-04-29T13:50:21;3.70;;;3.20;;
27728;SDS011;15126;42.186;24.340;2023-04-29T13:52:48;9.07;;;3.07;;
27728;SDS011;15126;42.186;24.340;2023-04-29T13:55:15;9.03;;;3.70;;
27728;SDS011;15126;42.186;24.340;2023-04-29T13:57:42;6.90;;;2.87;;
27728;SDS011;15126;42.186;24.340;2023-04-29T14:00:09;7.30;;;3.77;;
27728;SDS011;15126;42.186;24.340;2023-04-29T14:02:37;6.17;;;3.77;;
27728;SDS011;15126;42.186;24.340;2023-04-29T14:05:06;5.93;;;3.77;;
27728;SDS011;15126;42.186;24.340;2023-04-29T14:07:34;6.13;;;3.37;;
27728;SDS011;15126;42.186;24.340;2023-04-29T14:10:01;3.67;;;3.30;;
27728;SDS011;15126;42.186;24.340;2023-04-29T14:12:30;8.80;;;4.00;;
27728;SDS011;15126;42.186;24.340;2023-04-29T14:14:57;5.60;;;3.60;;
27728;SDS011;15126;42.186;24.340;2023-04-29T14:17:23;4.13;;;3.73;;
27728;SDS011;15126;42.186;24.340;2023-04-29T14:19:51;5.87;;;3.33;;
27728;SDS011;15126;42.186;24.340;2023-04-29T14:22:19;4.73;;;2.87;;
27728;SDS011;15126;42.186;24.340;2023-04-29T14:24:46;4.93;;;3.53;;
27728;SDS011;15126;42.186;24.340;2023-04-29T14:27:13;4.07;;;2.87;;
27728;SDS011;15126;42.186;24.340;2023-04-29T14:29:40;4.57;;;2.77;;
27728;SDS011;15126;42.186;24.340;2023-04-29T14:32:06;5.77;;;2.70;;
27728;SDS011;15126;42.186;24.340;2023-04-29T14:34:33;8.10;;;3.00;;